Accueil
METAR-TAF:

METAR-TAF

Aéroports :

Nioro du Sahel, Mali

latitude: 15-14N, longitude: 009-21W, altitude: 235 m

Observation

Le bulletin a été fait il y a 29 minutes, à 15:00 UTC
Vent 10 kt de est
Température 38°C
Humidité 8%
Pression 1010 hPa
Visibilité 10 km ou plus
pas de nuages en-dessous de 1500 mètres et pas de cumulonimbus.

METAR: GANR 261500Z 10010KT CAVOK 38/M02 Q1010

Heure: 15:29 (15:29 UTC)


TAF: absent

Observations et prévisions météorologiques de plus de 4000 aéroports (messages METAR et TAF).

Les stations disponibles sont représentées par des disques jaunes et rouges sur la carte.

Passer la souris dessus pour voir le nom de la station.

Cliquer dessus pour voir les observations et prévisions météorologiques.

Pour changer de carte: cliquez sur les boutons verts avec une croix noire pour zoomer, sur le bouton vert avec un tiret pour effectuer un zoom arrière, ou sur les flèches vertes pour les cartes adjacentes.


METAR-TAF: